Aérodrome :
LOGIN :

S'inscrire | Disclaimer

   EN    FR    IT 

 










Légende :    VFR   VFR Marginal   IFR   IFR Intensif   IFR Très Intensif
Visi : 
Plafond : 
>= 8 km
>= 3000ft
5 à 8 km
1000 à 3000 ft
1500m à 5 km
500 à 1000 ft
800 à 1500m
200 à 500 ft
< 800m
< 200 ft
Symboles :   Orages  Brouillard  Fortes neiges  Fortes précipitations  Vent > 20 kt
SIGMETs :   Divers  Orages  Givrage  Turbulence  Onde Orograph.  Cendres Volcan.







- Altitude de l'aérodrome : 17 ft
- Code IATA : GRQ


EHGG - Groningen Eelde

DERNIER METAR :
  • 211125Z AUTO 11009KT 070V160 9999 OVC015 03/M00 Q1019 NOSIG

METARs EXPIRÉS :
  • 211055Z AUTO 11010KT 070V140 9999 OVC016 03/M00 Q1019 NOSIG
  • 211025Z AUTO 10011KT 060V140 9999 OVC016 03/M00 Q1018 NOSIG
  • 210955Z AUTO 10010KT 060V160 9999 OVC016 03/M00 Q1018 NOSIG
  • 210925Z AUTO 10009KT 060V130 9999 OVC016 03/M00 Q1018 NOSIG
  • 210855Z AUTO 10011KT 060V140 9999 OVC016 03/M00 Q1018 NOSIG
  • 210825Z AUTO 10010KT 070V140 9999 OVC016 03/M00 Q1018 NOSIG

TAF TAF EHGG
Valide du 21 à 12h jusqu'au 22 à 18h UTC


211112Z 2112/2218 09012KT 9999 BKN016
BECMG 2121/2124 6000 BKN012
PROB40 2200/2210 4000 BR BKN005
BECMG 2209/2212 7000 BKN016
Pas de NOTAMs connus pour ce terrain.



MET'MAP, la Météo Aéronautique d'un coup d'oeil ! - Copyright ORBIFLY Décembre 2007 - Disclaimer

ORBIFLY MET'MAP TEAM :

Programmation & Développement : Alexandra Zaïnal
Conception & Développement : Baudouin d'Aumeries
Co-Programmation & Développement : Marc-Olivier Méhu
Soutien technique & logistique : Manuel Goepfert

Contact : metmap@orbifly.com




SOURCES & CREDITS :

   NOAA